This is the latest recevied weather packets stored in our database for station/object N6RDS-8. If no packets are shown the sender has not sent any weather packets the latest 10 day(s).
| Time | Temp. | Humidity | Pressure | Rain* | Wind** | Luminosity | Snow |
|---|---|---|---|---|---|---|---|
| 1778003488 | 21.67° C | 49% | 1016.5 hPa | 0 mm | - | 784 W/m² | - |
| 1778003184 | 22.22° C | 47% | 1016.2 hPa | 0 mm | - | 695 W/m² | - |
| 1778002881 | 21.67° C | 48% | 1016.5 hPa | 0 mm | - | 756 W/m² | - |
| 1778002577 | 21.11° C | 50% | 1016.5 hPa | 0 mm | - | 542 W/m² | - |
| 1778002274 | 20.56° C | 51% | 1016.6 hPa | 0 mm | - | 714 W/m² | - |
| 1778001972 | 21.11° C | 53% | 1016.7 hPa | 0 mm | - | 594 W/m² | - |
| 1778001668 | 20° C | 53% | 1016.7 hPa | 0 mm | - | 865 W/m² | - |
| 1778001362 | 21.11° C | 51% | 1016.4 hPa | 0 mm | - | 215 W/m² | - |
| 1778001060 | 20° C | 57% | 1016.6 hPa | 0 mm | - | 717 W/m² | - |
| 1778000757 | 20° C | 58% | 1016.7 hPa | 0 mm | - | 232 W/m² | - |
| 1778000453 | 20° C | 62% | 1016.6 hPa | 0 mm | - | 637 W/m² | - |
| 1778000148 | 20° C | 61% | 1016.7 hPa | 0 mm | - | 575 W/m² | - |
| 1777999845 | 18.89° C | 61% | 1016.8 hPa | 0 mm | - | 704 W/m² | - |
| 1777999540 | 18.33° C | 64% | 1016.7 hPa | 0 mm | - | 654 W/m² | - |
| 1777999238 | 18.33° C | 65% | 1016.8 hPa | 0 mm | - | 694 W/m² | - |
| 1777998937 | 17.78° C | 64% | 1016.7 hPa | 0 mm | - | 305 W/m² | - |
| 1777998633 | 17.22° C | 64% | 1016.7 hPa | 0 mm | - | 152 W/m² | - |
| 1777998327 | 17.78° C | 67% | 1016.9 hPa | 0 mm | - | 150 W/m² | - |
| 1777998024 | 17.22° C | 67% | 1016.8 hPa | 0 mm | - | 163 W/m² | - |
| 1777997720 | 17.78° C | 68% | 1016.9 hPa | 0 mm | - | 418 W/m² | - |
| 1777997417 | 18.33° C | 63% | 1016.9 hPa | 0 mm | - | 251 W/m² | - |
| 1777997115 | 17.78° C | 60% | 1016.7 hPa | 0 mm | - | 434 W/m² | - |
| 1777996813 | 17.78° C | 60% | 1016.7 hPa | 0 mm | - | 356 W/m² | - |
| 1777996508 | 17.78° C | 64% | 1016.9 hPa | 0 mm | - | 399 W/m² | - |
| 1777996205 | 17.22° C | 67% | 1017 hPa | 0 mm | - | 399 W/m² | - |
* Rain latest hour (hover to see other rain measurements)
** Current wind speed in m/s (hover to see current wind gust speed)